world map with OBBI marked

OBBI - Airport

This information may not be accurate or current and is not valid for navigation or flight planning. No warranty of fitness for any purpose is made or implied.

flag of Bahrain

Donate via PayPal

Additional information is available on the NEW Great Circle Mapper

Location
City:  Manama, Bahrain
Near (Alt.):Muharraq
Name:Bahrain International Airport
ICAO / IATA:OBBI / BAH

Details
Type:Airport (Aerodrome, Airfield)
Use:Public/Civil
Latitude:26°16'15"N (26.270833)
Longitude:50°38'01"E (50.633611)
Elevation:6 ft (2 m)
Runways:2
Longest:13005 × 197 ft (3964 × 60 m)

Time
Timezone:UTC+3 (DST+5)
Local Time:

Weather
METAR:OBBI  041400Z 33017KT CAVOK 18/09 Q1021 NOSIG
TAF:OBBI  041100Z 0412/0518 33017G27KT 9999 FEW030= TAF OKBK 041045Z 0412/0518 33012KT 7000 SKC

Related Locations
Nearby:
Farthest:GMR: 12031 mi / 19363 km
Mangareva [Totegegie], Gambier Islands, PF

Find:

   beyond  
but within

Other Information
Maps:
Links:
Sources:

  

Airport Diagram

Airport diagram for OBBI

Airport diagram (OBSOLETE) from NGA

 


Great Circle Mapper   Great Circle Mapper
Great Circle Mapper FAQ   Great Circle Mapper FAQ
  Karl's Home Page
KLSē   KLSē Home
   GC on Facebook
Airlines of the World   Airlines of the World
Donate via PayPal


Copyright © 2004-2020, Karl L. Swartz. All rights reserved.
All trademarks mentioned herein belong to their respective owners.

Please see credits for attribution and copyright information.

Karl Swartz <karl@kls2.com>
  Powered by FreeBSD
Valid HTML 4.01!
Labeled with ICRA
hCard Microformat
Geo Microformat